sensor_id;sensor_type;location;lat;lon;timestamp;P1;durP1;ratioP1;P2;durP2;ratioP2
5549;SDS011;2798;42.716;23.256;2022-08-19T00:00:23;7.00;;;5.13;;
5549;SDS011;2798;42.716;23.256;2022-08-19T00:02:49;6.70;;;4.57;;
5549;SDS011;2798;42.716;23.256;2022-08-19T00:05:14;8.77;;;4.40;;
5549;SDS011;2798;42.716;23.256;2022-08-19T00:07:41;8.40;;;4.60;;
5549;SDS011;2798;42.716;23.256;2022-08-19T00:10:08;7.53;;;4.63;;
5549;SDS011;2798;42.716;23.256;2022-08-19T00:12:35;11.60;;;4.87;;
5549;SDS011;2798;42.716;23.256;2022-08-19T00:15:03;10.77;;;4.70;;
5549;SDS011;2798;42.716;23.256;2022-08-19T00:17:29;10.80;;;5.10;;
5549;SDS011;2798;42.716;23.256;2022-08-19T00:19:55;5.93;;;5.10;;
5549;SDS011;2798;42.716;23.256;2022-08-19T00:22:21;7.70;;;5.40;;
5549;SDS011;2798;42.716;23.256;2022-08-19T00:24:47;8.77;;;5.33;;
5549;SDS011;2798;42.716;23.256;2022-08-19T00:27:12;7.23;;;5.33;;
5549;SDS011;2798;42.716;23.256;2022-08-19T00:29:38;7.87;;;5.13;;
5549;SDS011;2798;42.716;23.256;2022-08-19T00:32:04;7.07;;;5.33;;
5549;SDS011;2798;42.716;23.256;2022-08-19T00:34:30;7.93;;;5.83;;
5549;SDS011;2798;42.716;23.256;2022-08-19T00:36:56;9.13;;;5.40;;
5549;SDS011;2798;42.716;23.256;2022-08-19T00:39:23;7.40;;;5.40;;
5549;SDS011;2798;42.716;23.256;2022-08-19T00:41:49;6.00;;;4.83;;
5549;SDS011;2798;42.716;23.256;2022-08-19T00:44:23;8.73;;;5.40;;
5549;SDS011;2798;42.716;23.256;2022-08-19T00:46:53;10.60;;;5.73;;
5549;SDS011;2798;42.716;23.256;2022-08-19T00:49:23;7.03;;;4.83;;
5549;SDS011;2798;42.716;23.256;2022-08-19T00:51:51;8.10;;;5.40;;
5549;SDS011;2798;42.716;23.256;2022-08-19T00:54:20;8.40;;;5.90;;
5549;SDS011;2798;42.716;23.256;2022-08-19T00:56:47;5.70;;;5.10;;
5549;SDS011;2798;42.716;23.256;2022-08-19T00:59:15;7.63;;;6.10;;
5549;SDS011;2798;42.716;23.256;2022-08-19T01:01:43;8.03;;;6.13;;
5549;SDS011;2798;42.716;23.256;2022-08-19T01:04:10;8.57;;;6.43;;
5549;SDS011;2798;42.716;23.256;2022-08-19T01:06:36;7.83;;;6.30;;
5549;SDS011;2798;42.716;23.256;2022-08-19T01:09:03;9.77;;;5.30;;
5549;SDS011;2798;42.716;23.256;2022-08-19T01:11:30;8.93;;;5.30;;
5549;SDS011;2798;42.716;23.256;2022-08-19T01:13:59;7.70;;;5.17;;
5549;SDS011;2798;42.716;23.256;2022-08-19T01:16:25;7.77;;;5.87;;
5549;SDS011;2798;42.716;23.256;2022-08-19T01:18:53;11.13;;;6.37;;
5549;SDS011;2798;42.716;23.256;2022-08-19T01:23:59;8.63;;;6.03;;
5549;SDS011;2798;42.716;23.256;2022-08-19T01:26:25;11.67;;;7.70;;
5549;SDS011;2798;42.716;23.256;2022-08-19T01:28:53;13.27;;;7.07;;
5549;SDS011;2798;42.716;23.256;2022-08-19T01:31:22;8.47;;;5.87;;
5549;SDS011;2798;42.716;23.256;2022-08-19T01:33:49;8.63;;;5.33;;
5549;SDS011;2798;42.716;23.256;2022-08-19T01:36:26;7.47;;;6.00;;
5549;SDS011;2798;42.716;23.256;2022-08-19T01:38:55;9.23;;;6.23;;
5549;SDS011;2798;42.716;23.256;2022-08-19T01:41:23;7.70;;;5.47;;
5549;SDS011;2798;42.716;23.256;2022-08-19T01:43:53;9.17;;;6.07;;
5549;SDS011;2798;42.716;23.256;2022-08-19T01:46:19;6.80;;;5.67;;
5549;SDS011;2798;42.716;23.256;2022-08-19T01:48:44;9.83;;;5.87;;
5549;SDS011;2798;42.716;23.256;2022-08-19T01:51:10;8.40;;;5.70;;
5549;SDS011;2798;42.716;23.256;2022-08-19T01:53:37;6.80;;;5.90;;
5549;SDS011;2798;42.716;23.256;2022-08-19T01:56:03;7.00;;;5.37;;
5549;SDS011;2798;42.716;23.256;2022-08-19T01:58:32;8.17;;;5.80;;
5549;SDS011;2798;42.716;23.256;2022-08-19T02:01:03;8.07;;;5.17;;
5549;SDS011;2798;42.716;23.256;2022-08-19T02:03:30;7.80;;;5.50;;
5549;SDS011;2798;42.716;23.256;2022-08-19T02:05:57;7.00;;;5.93;;
5549;SDS011;2798;42.716;23.256;2022-08-19T02:08:25;7.17;;;5.67;;
5549;SDS011;2798;42.716;23.256;2022-08-19T02:10:54;8.73;;;5.87;;
5549;SDS011;2798;42.716;23.256;2022-08-19T02:13:20;8.47;;;5.87;;
5549;SDS011;2798;42.716;23.256;2022-08-19T02:15:45;6.20;;;5.60;;
5549;SDS011;2798;42.716;23.256;2022-08-19T02:18:11;7.80;;;5.83;;
5549;SDS011;2798;42.716;23.256;2022-08-19T02:20:38;7.80;;;6.00;;
5549;SDS011;2798;42.716;23.256;2022-08-19T02:23:05;7.67;;;5.93;;
5549;SDS011;2798;42.716;23.256;2022-08-19T02:25:32;14.30;;;6.43;;
5549;SDS011;2798;42.716;23.256;2022-08-19T02:27:58;8.57;;;5.60;;
5549;SDS011;2798;42.716;23.256;2022-08-19T02:30:23;8.50;;;5.60;;
5549;SDS011;2798;42.716;23.256;2022-08-19T02:32:50;10.20;;;5.87;;
5549;SDS011;2798;42.716;23.256;2022-08-19T02:35:16;6.43;;;5.50;;
5549;SDS011;2798;42.716;23.256;2022-08-19T02:37:42;6.23;;;5.60;;
5549;SDS011;2798;42.716;23.256;2022-08-19T02:40:27;9.70;;;5.70;;
5549;SDS011;2798;42.716;23.256;2022-08-19T02:42:53;10.90;;;6.13;;
5549;SDS011;2798;42.716;23.256;2022-08-19T02:45:19;7.70;;;5.70;;
5549;SDS011;2798;42.716;23.256;2022-08-19T02:47:45;8.47;;;6.30;;
5549;SDS011;2798;42.716;23.256;2022-08-19T02:50:10;6.80;;;6.10;;
5549;SDS011;2798;42.716;23.256;2022-08-19T02:52:36;11.70;;;6.30;;
5549;SDS011;2798;42.716;23.256;2022-08-19T02:55:01;7.20;;;6.10;;
5549;SDS011;2798;42.716;23.256;2022-08-19T02:57:29;14.20;;;6.40;;
5549;SDS011;2798;42.716;23.256;2022-08-19T02:59:56;6.80;;;6.13;;
5549;SDS011;2798;42.716;23.256;2022-08-19T03:02:21;5.90;;;5.27;;
5549;SDS011;2798;42.716;23.256;2022-08-19T03:04:47;8.40;;;6.37;;
5549;SDS011;2798;42.716;23.256;2022-08-19T03:07:13;9.23;;;5.77;;
5549;SDS011;2798;42.716;23.256;2022-08-19T03:09:39;15.13;;;6.43;;
5549;SDS011;2798;42.716;23.256;2022-08-19T03:12:05;11.40;;;6.40;;
5549;SDS011;2798;42.716;23.256;2022-08-19T03:14:31;11.00;;;5.80;;
5549;SDS011;2798;42.716;23.256;2022-08-19T03:17:00;6.53;;;5.93;;
5549;SDS011;2798;42.716;23.256;2022-08-19T03:19:26;7.47;;;5.80;;
5549;SDS011;2798;42.716;23.256;2022-08-19T03:21:53;13.40;;;6.90;;
5549;SDS011;2798;42.716;23.256;2022-08-19T03:24:19;6.87;;;5.50;;
5549;SDS011;2798;42.716;23.256;2022-08-19T03:26:48;8.63;;;6.40;;
5549;SDS011;2798;42.716;23.256;2022-08-19T03:29:17;10.80;;;6.00;;
5549;SDS011;2798;42.716;23.256;2022-08-19T03:31:44;9.40;;;6.17;;
5549;SDS011;2798;42.716;23.256;2022-08-19T03:34:11;11.00;;;6.67;;
5549;SDS011;2798;42.716;23.256;2022-08-19T03:36:38;16.10;;;6.43;;
5549;SDS011;2798;42.716;23.256;2022-08-19T03:39:03;9.90;;;6.90;;
5549;SDS011;2798;42.716;23.256;2022-08-19T03:41:30;12.80;;;6.30;;
5549;SDS011;2798;42.716;23.256;2022-08-19T03:43:58;9.37;;;7.47;;
5549;SDS011;2798;42.716;23.256;2022-08-19T03:46:25;8.40;;;6.70;;
5549;SDS011;2798;42.716;23.256;2022-08-19T03:48:53;10.90;;;6.40;;
5549;SDS011;2798;42.716;23.256;2022-08-19T03:51:21;9.00;;;6.87;;
5549;SDS011;2798;42.716;23.256;2022-08-19T03:53:47;12.00;;;6.00;;
5549;SDS011;2798;42.716;23.256;2022-08-19T03:56:13;9.40;;;6.17;;
5549;SDS011;2798;42.716;23.256;2022-08-19T03:58:39;8.53;;;6.10;;
5549;SDS011;2798;42.716;23.256;2022-08-19T04:01:09;7.90;;;6.40;;
5549;SDS011;2798;42.716;23.256;2022-08-19T04:03:43;7.07;;;6.23;;
5549;SDS011;2798;42.716;23.256;2022-08-19T04:08:43;14.30;;;6.93;;
5549;SDS011;2798;42.716;23.256;2022-08-19T04:11:10;12.03;;;7.17;;
5549;SDS011;2798;42.716;23.256;2022-08-19T04:13:38;11.50;;;7.53;;
5549;SDS011;2798;42.716;23.256;2022-08-19T04:16:03;14.20;;;7.77;;
5549;SDS011;2798;42.716;23.256;2022-08-19T04:18:30;9.70;;;6.90;;
5549;SDS011;2798;42.716;23.256;2022-08-19T04:20:56;10.93;;;7.07;;
5549;SDS011;2798;42.716;23.256;2022-08-19T04:23:22;15.53;;;7.07;;
5549;SDS011;2798;42.716;23.256;2022-08-19T04:25:47;19.13;;;7.80;;
5549;SDS011;2798;42.716;23.256;2022-08-19T04:28:13;14.80;;;7.60;;
5549;SDS011;2798;42.716;23.256;2022-08-19T04:30:39;17.53;;;7.17;;
5549;SDS011;2798;42.716;23.256;2022-08-19T04:33:06;15.97;;;8.77;;
5549;SDS011;2798;42.716;23.256;2022-08-19T04:35:36;15.00;;;7.40;;
5549;SDS011;2798;42.716;23.256;2022-08-19T04:38:07;10.20;;;7.07;;
5549;SDS011;2798;42.716;23.256;2022-08-19T04:40:32;11.27;;;8.47;;
5549;SDS011;2798;42.716;23.256;2022-08-19T04:43:17;11.97;;;7.00;;
5549;SDS011;2798;42.716;23.256;2022-08-19T04:45:43;13.40;;;8.00;;
5549;SDS011;2798;42.716;23.256;2022-08-19T04:48:10;10.27;;;7.20;;
5549;SDS011;2798;42.716;23.256;2022-08-19T04:50:39;8.20;;;6.87;;
5549;SDS011;2798;42.716;23.256;2022-08-19T04:53:06;15.77;;;7.17;;
5549;SDS011;2798;42.716;23.256;2022-08-19T04:55:32;9.47;;;7.23;;
5549;SDS011;2798;42.716;23.256;2022-08-19T04:57:58;14.03;;;6.67;;
5549;SDS011;2798;42.716;23.256;2022-08-19T05:00:24;11.27;;;6.70;;
5549;SDS011;2798;42.716;23.256;2022-08-19T05:02:50;7.50;;;5.90;;
5549;SDS011;2798;42.716;23.256;2022-08-19T05:05:15;9.87;;;7.37;;
5549;SDS011;2798;42.716;23.256;2022-08-19T05:07:41;9.60;;;6.70;;
5549;SDS011;2798;42.716;23.256;2022-08-19T05:10:07;12.73;;;7.00;;
5549;SDS011;2798;42.716;23.256;2022-08-19T05:12:33;6.83;;;6.13;;
5549;SDS011;2798;42.716;23.256;2022-08-19T05:14:58;10.13;;;7.20;;
5549;SDS011;2798;42.716;23.256;2022-08-19T05:17:25;14.20;;;7.53;;
5549;SDS011;2798;42.716;23.256;2022-08-19T05:19:52;11.70;;;6.60;;
5549;SDS011;2798;42.716;23.256;2022-08-19T05:22:36;14.87;;;8.07;;
5549;SDS011;2798;42.716;23.256;2022-08-19T05:25:06;13.47;;;7.07;;
5549;SDS011;2798;42.716;23.256;2022-08-19T05:27:34;12.30;;;7.20;;
5549;SDS011;2798;42.716;23.256;2022-08-19T05:30:00;9.13;;;7.27;;
5549;SDS011;2798;42.716;23.256;2022-08-19T05:32:26;10.93;;;7.80;;
5549;SDS011;2798;42.716;23.256;2022-08-19T05:34:52;8.73;;;6.40;;
5549;SDS011;2798;42.716;23.256;2022-08-19T05:37:18;10.57;;;8.17;;
5549;SDS011;2798;42.716;23.256;2022-08-19T05:39:44;9.70;;;7.60;;
5549;SDS011;2798;42.716;23.256;2022-08-19T05:42:10;11.87;;;7.87;;
5549;SDS011;2798;42.716;23.256;2022-08-19T05:44:40;9.40;;;8.00;;
5549;SDS011;2798;42.716;23.256;2022-08-19T05:47:09;13.90;;;7.43;;
5549;SDS011;2798;42.716;23.256;2022-08-19T05:49:36;9.23;;;7.80;;
5549;SDS011;2798;42.716;23.256;2022-08-19T05:52:03;8.17;;;7.33;;
5549;SDS011;2798;42.716;23.256;2022-08-19T05:54:30;19.73;;;7.60;;
5549;SDS011;2798;42.716;23.256;2022-08-19T05:56:56;9.67;;;7.40;;
5549;SDS011;2798;42.716;23.256;2022-08-19T05:59:21;15.00;;;7.43;;
5549;SDS011;2798;42.716;23.256;2022-08-19T06:01:47;12.60;;;7.90;;
5549;SDS011;2798;42.716;23.256;2022-08-19T06:04:19;14.60;;;7.23;;
5549;SDS011;2798;42.716;23.256;2022-08-19T06:06:49;17.30;;;11.03;;
5549;SDS011;2798;42.716;23.256;2022-08-19T06:09:16;15.40;;;7.80;;
5549;SDS011;2798;42.716;23.256;2022-08-19T06:11:44;15.47;;;6.80;;
5549;SDS011;2798;42.716;23.256;2022-08-19T06:14:15;13.00;;;8.27;;
5549;SDS011;2798;42.716;23.256;2022-08-19T06:16:42;11.33;;;8.77;;
5549;SDS011;2798;42.716;23.256;2022-08-19T06:19:11;14.43;;;8.33;;
5549;SDS011;2798;42.716;23.256;2022-08-19T06:21:38;25.33;;;7.40;;
5549;SDS011;2798;42.716;23.256;2022-08-19T06:24:06;17.10;;;11.23;;
5549;SDS011;2798;42.716;23.256;2022-08-19T06:26:35;11.63;;;8.43;;
5549;SDS011;2798;42.716;23.256;2022-08-19T06:29:03;11.50;;;7.40;;
5549;SDS011;2798;42.716;23.256;2022-08-19T06:31:33;13.80;;;8.23;;
5549;SDS011;2798;42.716;23.256;2022-08-19T06:34:03;14.43;;;7.60;;
5549;SDS011;2798;42.716;23.256;2022-08-19T06:36:30;9.73;;;7.47;;
5549;SDS011;2798;42.716;23.256;2022-08-19T06:39:00;17.80;;;7.50;;
5549;SDS011;2798;42.716;23.256;2022-08-19T06:41:28;11.33;;;7.10;;
5549;SDS011;2798;42.716;23.256;2022-08-19T06:43:54;11.47;;;7.90;;
5549;SDS011;2798;42.716;23.256;2022-08-19T06:46:20;10.17;;;8.37;;
5549;SDS011;2798;42.716;23.256;2022-08-19T06:48:46;12.70;;;8.47;;
5549;SDS011;2798;42.716;23.256;2022-08-19T06:51:16;10.17;;;7.10;;
5549;SDS011;2798;42.716;23.256;2022-08-19T06:53:46;11.43;;;7.10;;
5549;SDS011;2798;42.716;23.256;2022-08-19T06:56:13;17.33;;;6.97;;
5549;SDS011;2798;42.716;23.256;2022-08-19T06:58:41;8.33;;;6.93;;
5549;SDS011;2798;42.716;23.256;2022-08-19T07:01:07;8.83;;;6.87;;
5549;SDS011;2798;42.716;23.256;2022-08-19T07:03:34;20.40;;;7.40;;
5549;SDS011;2798;42.716;23.256;2022-08-19T07:06:05;12.47;;;7.03;;
5549;SDS011;2798;42.716;23.256;2022-08-19T07:08:35;12.87;;;7.23;;
5549;SDS011;2798;42.716;23.256;2022-08-19T07:11:05;22.00;;;12.00;;
5549;SDS011;2798;42.716;23.256;2022-08-19T07:13:36;13.50;;;7.60;;
5549;SDS011;2798;42.716;23.256;2022-08-19T07:16:03;11.57;;;8.23;;
5549;SDS011;2798;42.716;23.256;2022-08-19T07:18:30;14.47;;;7.90;;
5549;SDS011;2798;42.716;23.256;2022-08-19T07:21:03;12.33;;;8.37;;
5549;SDS011;2798;42.716;23.256;2022-08-19T07:23:33;11.03;;;7.00;;
5549;SDS011;2798;42.716;23.256;2022-08-19T07:26:04;12.53;;;7.40;;
5549;SDS011;2798;42.716;23.256;2022-08-19T07:28:34;14.57;;;8.23;;
5549;SDS011;2798;42.716;23.256;2022-08-19T07:31:07;14.37;;;8.20;;
5549;SDS011;2798;42.716;23.256;2022-08-19T07:33:33;13.83;;;8.60;;
5549;SDS011;2798;42.716;23.256;2022-08-19T07:36:02;13.73;;;8.77;;
5549;SDS011;2798;42.716;23.256;2022-08-19T07:38:29;11.70;;;8.33;;
5549;SDS011;2798;42.716;23.256;2022-08-19T07:40:54;11.20;;;7.80;;
5549;SDS011;2798;42.716;23.256;2022-08-19T07:43:20;17.07;;;10.57;;
5549;SDS011;2798;42.716;23.256;2022-08-19T07:45:50;20.17;;;14.23;;
5549;SDS011;2798;42.716;23.256;2022-08-19T07:48:18;14.00;;;7.50;;
5549;SDS011;2798;42.716;23.256;2022-08-19T07:50:44;16.80;;;11.60;;
5549;SDS011;2798;42.716;23.256;2022-08-19T07:53:10;16.00;;;11.97;;
5549;SDS011;2798;42.716;23.256;2022-08-19T07:55:37;21.53;;;7.83;;
5549;SDS011;2798;42.716;23.256;2022-08-19T07:58:02;9.37;;;6.40;;
5549;SDS011;2798;42.716;23.256;2022-08-19T08:00:30;11.53;;;7.30;;
5549;SDS011;2798;42.716;23.256;2022-08-19T08:02:56;23.87;;;7.30;;
5549;SDS011;2798;42.716;23.256;2022-08-19T08:05:22;11.27;;;6.87;;
5549;SDS011;2798;42.716;23.256;2022-08-19T08:08:06;10.20;;;6.97;;
5549;SDS011;2798;42.716;23.256;2022-08-19T08:10:50;8.83;;;6.77;;
5549;SDS011;2798;42.716;23.256;2022-08-19T08:13:16;12.07;;;7.27;;
5549;SDS011;2798;42.716;23.256;2022-08-19T08:15:41;8.00;;;6.40;;
5549;SDS011;2798;42.716;23.256;2022-08-19T08:18:10;9.67;;;6.03;;
5549;SDS011;2798;42.716;23.256;2022-08-19T08:20:36;14.37;;;7.07;;
5549;SDS011;2798;42.716;23.256;2022-08-19T08:23:02;8.93;;;6.20;;
5549;SDS011;2798;42.716;23.256;2022-08-19T08:25:46;7.67;;;6.00;;
5549;SDS011;2798;42.716;23.256;2022-08-19T08:28:13;8.13;;;6.10;;
5549;SDS011;2798;42.716;23.256;2022-08-19T08:30:38;10.90;;;5.77;;
5549;SDS011;2798;42.716;23.256;2022-08-19T08:33:06;8.00;;;5.43;;
5549;SDS011;2798;42.716;23.256;2022-08-19T08:35:32;10.63;;;6.27;;
5549;SDS011;2798;42.716;23.256;2022-08-19T08:37:58;11.30;;;5.67;;
5549;SDS011;2798;42.716;23.256;2022-08-19T08:40:29;8.60;;;6.50;;
5549;SDS011;2798;42.716;23.256;2022-08-19T08:45:32;8.77;;;5.50;;
5549;SDS011;2798;42.716;23.256;2022-08-19T08:48:16;6.50;;;5.80;;
5549;SDS011;2798;42.716;23.256;2022-08-19T08:50:49;6.80;;;5.73;;
5549;SDS011;2798;42.716;23.256;2022-08-19T08:53:18;7.23;;;4.90;;
5549;SDS011;2798;42.716;23.256;2022-08-19T08:55:45;12.07;;;6.03;;
5549;SDS011;2798;42.716;23.256;2022-08-19T08:58:12;8.93;;;5.00;;
5549;SDS011;2798;42.716;23.256;2022-08-19T09:00:46;12.40;;;5.43;;
5549;SDS011;2798;42.716;23.256;2022-08-19T09:03:23;7.43;;;5.30;;
5549;SDS011;2798;42.716;23.256;2022-08-19T09:11:04;6.70;;;3.83;;
5549;SDS011;2798;42.716;23.256;2022-08-19T09:16:33;4.40;;;4.00;;
5549;SDS011;2798;42.716;23.256;2022-08-19T09:19:03;5.40;;;4.03;;
5549;SDS011;2798;42.716;23.256;2022-08-19T09:21:32;6.13;;;4.30;;
5549;SDS011;2798;42.716;23.256;2022-08-19T09:23:58;5.83;;;4.40;;
5549;SDS011;2798;42.716;23.256;2022-08-19T09:26:24;4.97;;;4.37;;
5549;SDS011;2798;42.716;23.256;2022-08-19T09:28:51;4.90;;;3.90;;
5549;SDS011;2798;42.716;23.256;2022-08-19T09:31:18;5.07;;;3.87;;
5549;SDS011;2798;42.716;23.256;2022-08-19T09:33:46;4.00;;;3.70;;
5549;SDS011;2798;42.716;23.256;2022-08-19T09:36:13;3.93;;;3.53;;
5549;SDS011;2798;42.716;23.256;2022-08-19T09:38:40;4.47;;;3.53;;
5549;SDS011;2798;42.716;23.256;2022-08-19T09:41:07;4.37;;;3.43;;
5549;SDS011;2798;42.716;23.256;2022-08-19T09:43:37;4.70;;;3.50;;
5549;SDS011;2798;42.716;23.256;2022-08-19T09:46:03;3.83;;;3.53;;
5549;SDS011;2798;42.716;23.256;2022-08-19T09:48:31;4.70;;;3.57;;
5549;SDS011;2798;42.716;23.256;2022-08-19T09:51:30;4.97;;;4.07;;
5549;SDS011;2798;42.716;23.256;2022-08-19T09:53:51;4.63;;;3.87;;
5549;SDS011;2798;42.716;23.256;2022-08-19T09:56:19;9.00;;;4.33;;
5549;SDS011;2798;42.716;23.256;2022-08-19T09:58:45;6.50;;;3.83;;
5549;SDS011;2798;42.716;23.256;2022-08-19T10:01:21;4.90;;;3.70;;
5549;SDS011;2798;42.716;23.256;2022-08-19T10:03:49;4.20;;;3.80;;
5549;SDS011;2798;42.716;23.256;2022-08-19T10:06:23;9.20;;;3.93;;
5549;SDS011;2798;42.716;23.256;2022-08-19T10:08:50;4.70;;;4.13;;
5549;SDS011;2798;42.716;23.256;2022-08-19T10:11:17;4.10;;;3.63;;
5549;SDS011;2798;42.716;23.256;2022-08-19T10:13:44;4.03;;;3.60;;
5549;SDS011;2798;42.716;23.256;2022-08-19T10:16:28;5.23;;;3.53;;
5549;SDS011;2798;42.716;23.256;2022-08-19T10:18:53;5.00;;;3.70;;
5549;SDS011;2798;42.716;23.256;2022-08-19T10:21:20;3.80;;;3.17;;
5549;SDS011;2798;42.716;23.256;2022-08-19T10:23:51;4.47;;;4.07;;
5549;SDS011;2798;42.716;23.256;2022-08-19T10:26:19;4.30;;;3.67;;
5549;SDS011;2798;42.716;23.256;2022-08-19T10:28:47;4.20;;;3.80;;
5549;SDS011;2798;42.716;23.256;2022-08-19T10:31:15;5.27;;;4.30;;
5549;SDS011;2798;42.716;23.256;2022-08-19T10:33:44;4.47;;;3.83;;
5549;SDS011;2798;42.716;23.256;2022-08-19T10:36:11;5.07;;;4.50;;
5549;SDS011;2798;42.716;23.256;2022-08-19T10:38:43;6.67;;;3.80;;
5549;SDS011;2798;42.716;23.256;2022-08-19T10:41:14;4.13;;;3.73;;
5549;SDS011;2798;42.716;23.256;2022-08-19T10:43:41;5.33;;;4.03;;
5549;SDS011;2798;42.716;23.256;2022-08-19T10:46:11;5.83;;;4.20;;
5549;SDS011;2798;42.716;23.256;2022-08-19T10:48:38;4.47;;;3.90;;
5549;SDS011;2798;42.716;23.256;2022-08-19T10:51:04;6.70;;;3.90;;
5549;SDS011;2798;42.716;23.256;2022-08-19T10:53:48;4.93;;;3.93;;
5549;SDS011;2798;42.716;23.256;2022-08-19T10:56:13;3.87;;;3.57;;
5549;SDS011;2798;42.716;23.256;2022-08-19T10:58:58;4.03;;;3.63;;
5549;SDS011;2798;42.716;23.256;2022-08-19T11:01:24;5.90;;;4.57;;
5549;SDS011;2798;42.716;23.256;2022-08-19T11:03:51;4.77;;;4.33;;
5549;SDS011;2798;42.716;23.256;2022-08-19T11:06:17;7.23;;;4.00;;
5549;SDS011;2798;42.716;23.256;2022-08-19T11:08:44;8.10;;;4.20;;
5549;SDS011;2798;42.716;23.256;2022-08-19T11:11:10;6.80;;;4.00;;
5549;SDS011;2798;42.716;23.256;2022-08-19T11:13:37;4.70;;;3.90;;
5549;SDS011;2798;42.716;23.256;2022-08-19T11:18:37;5.83;;;4.00;;
5549;SDS011;2798;42.716;23.256;2022-08-19T11:21:07;7.83;;;4.63;;
5549;SDS011;2798;42.716;23.256;2022-08-19T11:23:34;5.03;;;4.13;;
5549;SDS011;2798;42.716;23.256;2022-08-19T11:25:59;5.70;;;4.10;;
5549;SDS011;2798;42.716;23.256;2022-08-19T11:28:26;4.13;;;3.80;;
5549;SDS011;2798;42.716;23.256;2022-08-19T11:30:51;5.00;;;4.50;;
5549;SDS011;2798;42.716;23.256;2022-08-19T11:33:17;3.83;;;3.53;;
5549;SDS011;2798;42.716;23.256;2022-08-19T11:35:43;7.60;;;4.30;;
5549;SDS011;2798;42.716;23.256;2022-08-19T11:38:09;6.67;;;3.93;;
5549;SDS011;2798;42.716;23.256;2022-08-19T11:40:36;4.80;;;3.93;;
5549;SDS011;2798;42.716;23.256;2022-08-19T11:43:02;7.27;;;4.23;;
5549;SDS011;2798;42.716;23.256;2022-08-19T11:45:28;8.03;;;4.23;;
5549;SDS011;2798;42.716;23.256;2022-08-19T11:47:54;6.40;;;4.33;;
5549;SDS011;2798;42.716;23.256;2022-08-19T11:50:20;7.63;;;4.63;;
5549;SDS011;2798;42.716;23.256;2022-08-19T11:52:46;8.13;;;4.63;;
5549;SDS011;2798;42.716;23.256;2022-08-19T11:55:13;7.00;;;4.00;;
5549;SDS011;2798;42.716;23.256;2022-08-19T11:57:39;9.33;;;4.50;;
5549;SDS011;2798;42.716;23.256;2022-08-19T12:00:06;14.77;;;4.53;;
5549;SDS011;2798;42.716;23.256;2022-08-19T12:02:33;4.27;;;3.87;;
5549;SDS011;2798;42.716;23.256;2022-08-19T12:04:58;3.67;;;3.47;;
5549;SDS011;2798;42.716;23.256;2022-08-19T12:07:27;9.20;;;3.73;;
5549;SDS011;2798;42.716;23.256;2022-08-19T12:09:52;4.47;;;3.63;;
5549;SDS011;2798;42.716;23.256;2022-08-19T12:12:17;5.97;;;4.20;;
5549;SDS011;2798;42.716;23.256;2022-08-19T12:14:43;6.07;;;3.70;;
5549;SDS011;2798;42.716;23.256;2022-08-19T12:17:09;8.60;;;3.37;;
5549;SDS011;2798;42.716;23.256;2022-08-19T12:19:36;9.80;;;4.70;;
5549;SDS011;2798;42.716;23.256;2022-08-19T12:22:02;4.07;;;3.60;;
5549;SDS011;2798;42.716;23.256;2022-08-19T12:24:30;10.10;;;4.20;;
5549;SDS011;2798;42.716;23.256;2022-08-19T12:26:57;6.27;;;3.90;;
5549;SDS011;2798;42.716;23.256;2022-08-19T12:29:23;6.23;;;3.63;;
5549;SDS011;2798;42.716;23.256;2022-08-19T12:31:53;8.83;;;5.63;;
5549;SDS011;2798;42.716;23.256;2022-08-19T12:34:25;8.70;;;4.07;;
5549;SDS011;2798;42.716;23.256;2022-08-19T12:36:51;10.67;;;4.10;;
5549;SDS011;2798;42.716;23.256;2022-08-19T12:39:16;8.13;;;3.60;;
5549;SDS011;2798;42.716;23.256;2022-08-19T12:41:42;8.67;;;3.70;;
5549;SDS011;2798;42.716;23.256;2022-08-19T12:44:07;8.37;;;3.67;;
5549;SDS011;2798;42.716;23.256;2022-08-19T12:46:33;4.27;;;3.73;;
5549;SDS011;2798;42.716;23.256;2022-08-19T12:48:58;5.00;;;4.03;;
5549;SDS011;2798;42.716;23.256;2022-08-19T12:51:24;4.83;;;3.40;;
5549;SDS011;2798;42.716;23.256;2022-08-19T12:53:50;8.20;;;3.90;;
5549;SDS011;2798;42.716;23.256;2022-08-19T12:56:15;4.60;;;3.77;;
5549;SDS011;2798;42.716;23.256;2022-08-19T12:58:42;7.03;;;3.83;;
5549;SDS011;2798;42.716;23.256;2022-08-19T13:01:12;7.00;;;4.10;;
5549;SDS011;2798;42.716;23.256;2022-08-19T13:03:40;6.27;;;3.80;;
5549;SDS011;2798;42.716;23.256;2022-08-19T13:06:06;3.90;;;3.40;;
5549;SDS011;2798;42.716;23.256;2022-08-19T13:08:32;8.70;;;3.70;;
5549;SDS011;2798;42.716;23.256;2022-08-19T13:10:57;8.03;;;3.50;;
5549;SDS011;2798;42.716;23.256;2022-08-19T13:13:32;6.93;;;4.03;;
5549;SDS011;2798;42.716;23.256;2022-08-19T13:16:00;4.50;;;3.50;;
5549;SDS011;2798;42.716;23.256;2022-08-19T13:18:28;9.45;;;3.90;;
5549;SDS011;2798;42.716;23.256;2022-08-19T13:20:53;5.10;;;3.60;;
5549;SDS011;2798;42.716;23.256;2022-08-19T13:23:18;5.97;;;4.27;;
5549;SDS011;2798;42.716;23.256;2022-08-19T13:25:44;9.20;;;3.97;;
5549;SDS011;2798;42.716;23.256;2022-08-19T13:28:09;8.68;;;4.35;;
5549;SDS011;2798;42.716;23.256;2022-08-19T13:30:35;5.88;;;4.32;;
5549;SDS011;2798;42.716;23.256;2022-08-19T13:33:19;4.47;;;3.27;;
5549;SDS011;2798;42.716;23.256;2022-08-19T13:38:22;7.05;;;4.10;;
5549;SDS011;2798;42.716;23.256;2022-08-19T13:40:49;7.18;;;3.75;;
5549;SDS011;2798;42.716;23.256;2022-08-19T13:43:17;10.35;;;4.30;;
5549;SDS011;2798;42.716;23.256;2022-08-19T13:45:44;5.13;;;4.10;;
5549;SDS011;2798;42.716;23.256;2022-08-19T13:48:10;5.60;;;3.53;;
5549;SDS011;2798;42.716;23.256;2022-08-19T13:50:40;5.32;;;3.45;;
5549;SDS011;2798;42.716;23.256;2022-08-19T13:53:09;6.13;;;3.55;;
5549;SDS011;2798;42.716;23.256;2022-08-19T13:55:42;5.20;;;3.67;;
5549;SDS011;2798;42.716;23.256;2022-08-19T13:58:08;8.73;;;3.60;;
5549;SDS011;2798;42.716;23.256;2022-08-19T14:00:37;5.35;;;3.55;;
5549;SDS011;2798;42.716;23.256;2022-08-19T14:03:05;4.25;;;3.40;;
5549;SDS011;2798;42.716;23.256;2022-08-19T14:05:31;5.82;;;4.05;;
5549;SDS011;2798;42.716;23.256;2022-08-19T14:07:57;5.85;;;3.97;;
5549;SDS011;2798;42.716;23.256;2022-08-19T14:10:24;6.72;;;3.70;;
5549;SDS011;2798;42.716;23.256;2022-08-19T14:12:54;5.05;;;3.85;;
5549;SDS011;2798;42.716;23.256;2022-08-19T14:15:23;5.70;;;3.88;;
5549;SDS011;2798;42.716;23.256;2022-08-19T14:17:48;12.98;;;3.95;;
5549;SDS011;2798;42.716;23.256;2022-08-19T14:20:14;9.50;;;4.03;;
5549;SDS011;2798;42.716;23.256;2022-08-19T14:22:41;11.15;;;3.83;;
5549;SDS011;2798;42.716;23.256;2022-08-19T14:25:08;6.25;;;3.50;;
5549;SDS011;2798;42.716;23.256;2022-08-19T14:27:39;5.75;;;3.78;;
5549;SDS011;2798;42.716;23.256;2022-08-19T14:30:06;5.50;;;4.70;;
5549;SDS011;2798;42.716;23.256;2022-08-19T14:32:34;7.03;;;6.28;;
5549;SDS011;2798;42.716;23.256;2022-08-19T14:35:01;13.88;;;7.85;;
5549;SDS011;2798;42.716;23.256;2022-08-19T14:37:26;4.63;;;4.22;;
5549;SDS011;2798;42.716;23.256;2022-08-19T14:39:52;4.80;;;4.40;;
5549;SDS011;2798;42.716;23.256;2022-08-19T14:42:18;6.38;;;4.65;;
5549;SDS011;2798;42.716;23.256;2022-08-19T14:44:44;7.15;;;3.90;;
5549;SDS011;2798;42.716;23.256;2022-08-19T14:47:10;9.40;;;4.43;;
5549;SDS011;2798;42.716;23.256;2022-08-19T14:49:35;9.18;;;4.50;;
5549;SDS011;2798;42.716;23.256;2022-08-19T14:52:01;8.02;;;4.45;;
5549;SDS011;2798;42.716;23.256;2022-08-19T14:54:28;4.35;;;3.95;;
5549;SDS011;2798;42.716;23.256;2022-08-19T14:56:54;6.75;;;3.97;;
5549;SDS011;2798;42.716;23.256;2022-08-19T14:59:19;6.50;;;4.03;;
5549;SDS011;2798;42.716;23.256;2022-08-19T15:01:51;6.78;;;4.15;;
5549;SDS011;2798;42.716;23.256;2022-08-19T15:04:16;5.18;;;4.03;;
5549;SDS011;2798;42.716;23.256;2022-08-19T15:06:42;5.47;;;3.90;;
5549;SDS011;2798;42.716;23.256;2022-08-19T15:09:08;6.25;;;4.10;;
5549;SDS011;2798;42.716;23.256;2022-08-19T15:11:34;8.88;;;4.10;;
5549;SDS011;2798;42.716;23.256;2022-08-19T15:14:00;5.70;;;3.90;;
5549;SDS011;2798;42.716;23.256;2022-08-19T15:16:26;10.38;;;4.05;;
5549;SDS011;2798;42.716;23.256;2022-08-19T15:18:53;7.53;;;4.68;;
5549;SDS011;2798;42.716;23.256;2022-08-19T15:21:25;5.43;;;3.40;;